HT-0002 weather

Anse-a-Galets Airport
Ouest Department, Haiti

Public forecast

Using degrees Celsius for public forecast. Weather courtesy of forecast.io.

Closest aviation weather report (METAR) to Anse-a-Galets Airport

Closest report is Toussaint Louverture International Airport, 36.9 nm (68.4 km) ESE. Retrieved 2020/02/27 00:59 UTC (60 minutes ago):

MTPP 270059Z AUTO 07004KT 040V100 9000 ////// 28/23 Q1015 A2999 NOSIG

Closest aviation forecast (TAF) to Anse-a-Galets Airport

Forecast is more than 6 hours old.

Closest forecast is Toussaint Louverture International Airport, 36.9 nm (68.4 km) ESE. Retrieved 2020/02/26 18:07 UTC (8 hours ago):

TAF MTPP 261610Z 2618/2718 12008KT 9999 FEW026 BECMG 2618/2620 26012KT PROB30 TEMPO 2700/2705 4500 SHRA SCT024CB BKN050 FM270600 VRB02KT 7000 FEW020 BECMG 2713/2715 08010KT